Overview Statistics Trail Chart Weather Telemetry Raw packets
 

This is the latest recevied telemetry packets stored in our database for station/object OE6ATD-1. If no packets are shown the sender has not sent any telemetry packets the latest 10 day(s).

Telemetry packets is used to share measurements like repeteater parameters, battery voltage, radiation readings (or any other measurements).

<< 1 2 3 4 >>
Time Press* Temp.in* Hum* QNH* Temp.out*
1788699836 994.2 hPa 24.5 C deg 52.4 % 1025.2 hPa 0 C deg
1788698021 994.4 hPa 25.6 C deg 50.1 % 1025.3 hPa 0 C deg
1788696205 994.5 hPa 25.4 C deg 50.5 % 1025.5 hPa 0 C deg
1788694393 994.8 hPa 25.2 C deg 51.1 % 1025.8 hPa 0 C deg
1788692575 995 hPa 25 C deg 51.5 % 1026 hPa 0 C deg
1788690759 995.3 hPa 24.8 C deg 57.8 % 1026.3 hPa 0 C deg
1788688943 995.5 hPa 24.7 C deg 58.5 % 1026.5 hPa 0 C deg
1788687129 995.9 hPa 24.6 C deg 56.8 % 1026.9 hPa 0 C deg
1788685314 996 hPa 24.6 C deg 60 % 1027 hPa 0 C deg
1788683499 996.2 hPa 24.5 C deg 60 % 1027.3 hPa 0 C deg
1788681685 996.3 hPa 24.6 C deg 60.2 % 1027.4 hPa 0 C deg
1788679870 996.1 hPa 24.5 C deg 60.3 % 1027.2 hPa 0 C deg
1788678056 996.1 hPa 24.5 C deg 60.4 % 1027.2 hPa 0 C deg
1788676238 996.1 hPa 24.6 C deg 60.1 % 1027.1 hPa 0 C deg
1788674427 995.9 hPa 25.2 C deg 58.5 % 1026.9 hPa 0 C deg
1788672608 995.7 hPa 24.7 C deg 60.8 % 1026.8 hPa 0 C deg
1788670795 995.2 hPa 24.7 C deg 60.7 % 1026.2 hPa 0 C deg
1788668978 995 hPa 24.8 C deg 61.1 % 1026 hPa 0 C deg
1788667166 994.7 hPa 24.8 C deg 60.8 % 1025.8 hPa 0 C deg
1788665348 994.4 hPa 25.3 C deg 58.9 % 1025.4 hPa 0 C deg
1788663534 994.2 hPa 24.8 C deg 60.4 % 1025.2 hPa 0 C deg
1788661718 994.2 hPa 27.4 C deg 53 % 1024.9 hPa 0 C deg
1788659904 994 hPa 27.8 C deg 52 % 1024.7 hPa 0 C deg
1788658087 993.9 hPa 27.6 C deg 52.2 % 1024.6 hPa 0 C deg
1788656273 993.8 hPa 27.5 C deg 52.5 % 1024.5 hPa 0 C deg
*Used Equation Coefficients:
Press: 0, 1, 0
Temp.in: 0, 1, 0
Hum: 0, 1, 0
QNH: 0, 1, 0
Temp.out: 0, 1, 0

  • The parameter names for the analog channels will be Value1, Value2, Value3 (up to Value5) if station has not sent a PARAM-packet that specifies the parameter names for each analog channel.
  • Each analog value is a decimal number between 000 and 255 (according to APRS specifications). The receiver use the telemetry equation coefficientsto to restore the original sensor values. If no EQNS-packet with equation coefficients is sent we will show the values as is (this corresponds to the equation coefficients a=0, b=1 and c=0).
    The sent equation coefficients is used in the equation: a * value2 + b * value + c.
  • The units for the analog values will not be shown if station has not sent a UNIT-packet specifying what unit's to use.
  • The parameter names for the digital bits will be Bit1, Bit2, Bit3 (up to Bit8) if station has not sent a PARAM-packet that specifies the parameter names for each digital bit.
  • All bit labels will be named "On" if station has not sent a UNIT-packet that specifies the label of each bit.
  • A bit is considered to be On when the bit is 1 if station has not sent a BITS-packet that specifies another "Bit sense" (a BITS-packet specify the state of the bits that match the BIT labels)